Terminal Aerodrome Forecast
Issued by NWS

Home | Current Version | Previous Version | Text Only | Print | Product List | Glossary Off
Versions: 1 2 3 4 5 6 7 8 9 10 11 12

703
FTUS43 KPAH 042320
TAFCGI
TAF
KCGI 042320Z 0500/0524 35012G20KT P6SM SCT100
     FM050200 34007KT P6SM SCT100
     FM051400 34012G22KT P6SM SCT050
     FM051800 35014G24KT P6SM BKN050=

USA.gov is the U.S. government's official web portal to all federal, state and local government web resources and services.